Nashua River @ East Pepperell, Ma

Nashua River at East Pepperell
 Total Drainage Area: 316 sq. miles 
 Drainage Area Controlled by Corps Dams: 0 sq. miles (0%) 
 Warning Flow/Stage: 2,990 cfs / 6.5 feet 
 Flood Flow/Stage: 4,080 cfs / 8.0 feet 
Date Time
(Eastern)
Stage
(ft)
Flow
(cfs)
CSM
(cfs / sq. mi.)
Jun-24 11:30 pm 2.47 514 1.6
Jun-24 10:30 pm 2.45 506 1.6
Jun-24 09:30 pm 2.47 514 1.6
Jun-24 08:30 pm 2.47 514 1.6
Jun-24 07:30 pm 2.47 514 1.6
Jun-24 06:30 pm 2.47 514 1.6
Jun-24 05:30 pm 2.47 514 1.6
Jun-24 04:30 pm 2.49 522 1.7
Jun-24 03:30 pm 2.50 527 1.7
Jun-24 02:30 pm 2.50 527 1.7
Jun-24 01:30 pm 2.51 531 1.7
Jun-24 12:30 pm 2.51 531 1.7
Jun-24 11:30 am 2.51 531 1.7
Jun-24 10:30 am 2.52 535 1.7
Jun-24 09:30 am 2.51 531 1.7
Jun-24 08:30 am 2.51 531 1.7
Jun-24 07:30 am 2.52 535 1.7
Jun-24 06:30 am 2.52 535 1.7
Jun-24 05:30 am 2.53 539 1.7
Jun-24 04:30 am 2.53 539 1.7
Jun-24 03:30 am 2.53 539 1.7
Jun-24 02:30 am 2.53 539 1.7
Jun-24 01:30 am 2.53 539 1.7
Jun-24 12:30 am 2.54 543 1.7
Jun-23 11:30 pm 2.54 543 1.7
Report Generated June 25, 2024 12:16 am